createdAt,value
2018-12-26T00:00:04.922Z,6.4
2018-12-26T00:01:07.172Z,6.4
2018-12-26T00:02:09.797Z,6.4
2018-12-26T00:03:11.855Z,6.4
2018-12-26T00:04:13.900Z,6.4
2018-12-26T00:05:16.053Z,6.4
2018-12-26T00:06:18.419Z,6.4
2018-12-26T00:07:20.477Z,6.4
2018-12-26T00:08:22.513Z,6.4
2018-12-26T00:09:24.592Z,6.4
2018-12-26T00:10:26.639Z,6.4
2018-12-26T00:11:28.668Z,6.4
2018-12-26T00:12:30.703Z,6.4
2018-12-26T00:13:32.745Z,6.4
2018-12-26T00:14:34.778Z,6.4
2018-12-26T00:15:36.816Z,6.4
2018-12-26T00:16:38.863Z,6.4
2018-12-26T00:17:40.920Z,6.4
2018-12-26T00:18:43.855Z,6.4
2018-12-26T00:19:46.349Z,6.4
2018-12-26T00:20:48.387Z,6.4
2018-12-26T00:21:50.827Z,6.4
2018-12-26T00:22:52.881Z,6.4
2018-12-26T00:23:55.683Z,6.4
2018-12-26T00:24:57.868Z,6.4
2018-12-26T00:26:03.275Z,6.4
2018-12-26T00:27:05.332Z,6.4
2018-12-26T00:28:07.354Z,6.4
2018-12-26T00:29:09.459Z,6.4
2018-12-26T00:30:11.905Z,6.4
2018-12-26T00:31:14.226Z,6.4
2018-12-26T00:32:16.259Z,6.4
2018-12-26T00:33:18.311Z,6.3
2018-12-26T00:34:20.359Z,6.3
2018-12-26T00:35:22.392Z,6.4
2018-12-26T00:36:24.865Z,6.4
2018-12-26T00:37:26.902Z,6.3
2018-12-26T00:38:28.938Z,6.3
2018-12-26T00:39:30.995Z,6.3
2018-12-26T00:40:33.123Z,6.3
2018-12-26T00:41:35.149Z,6.3
2018-12-26T00:42:37.496Z,6.3
2018-12-26T00:43:39.824Z,6.3
2018-12-26T00:44:42.276Z,6.3
2018-12-26T00:45:44.330Z,6.3
2018-12-26T00:46:46.378Z,6.3
2018-12-26T00:47:48.404Z,6.3
2018-12-26T00:48:50.448Z,6.3
2018-12-26T00:49:52.480Z,6.3
2018-12-26T00:50:54.525Z,6.3
2018-12-26T00:51:56.572Z,6.4
2018-12-26T00:52:58.608Z,6.3
2018-12-26T00:54:00.658Z,6.4
2018-12-26T00:55:02.691Z,6.4
2018-12-26T00:56:11.690Z,6.3
2018-12-26T00:57:16.356Z,6.4
2018-12-26T00:58:18.392Z,6.4
2018-12-26T00:59:20.425Z,6.4
2018-12-26T01:00:22.473Z,6.4
2018-12-26T01:01:24.527Z,6.4
2018-12-26T01:02:26.577Z,6.4
2018-12-26T01:03:28.653Z,6.4
2018-12-26T01:04:30.694Z,6.4
2018-12-26T01:05:32.884Z,6.4
2018-12-26T01:06:34.957Z,6.4
2018-12-26T01:07:37.042Z,6.4
2018-12-26T01:08:39.371Z,6.4
2018-12-26T01:09:41.409Z,6.4
2018-12-26T01:10:43.448Z,6.4
2018-12-26T01:11:46.178Z,6.4
2018-12-26T01:12:48.608Z,6.4
2018-12-26T01:13:50.636Z,6.4
2018-12-26T01:14:52.679Z,6.4
2018-12-26T01:15:55.017Z,6.4
2018-12-26T01:16:57.061Z,6.4
2018-12-26T01:17:59.340Z,6.4
2018-12-26T01:19:01.433Z,6.4
2018-12-26T01:20:03.477Z,6.4
2018-12-26T01:21:05.540Z,6.4
2018-12-26T01:22:07.573Z,6.3
2018-12-26T01:23:09.615Z,6.3
2018-12-26T01:24:11.666Z,6.3
2018-12-26T01:25:14.186Z,6.3
2018-12-26T01:26:20.372Z,6.3
2018-12-26T01:27:22.416Z,6.3
2018-12-26T01:28:24.468Z,6.3
2018-12-26T01:29:26.500Z,6.4
2018-12-26T01:30:28.532Z,6.3
2018-12-26T01:31:30.615Z,6.3
2018-12-26T01:32:32.666Z,6.3
2018-12-26T01:33:34.703Z,6.3
2018-12-26T01:34:36.735Z,6.3
2018-12-26T01:35:38.784Z,6.3
2018-12-26T01:36:40.843Z,6.3
2018-12-26T01:37:43.304Z,6.3
2018-12-26T01:38:45.350Z,6.3
2018-12-26T01:39:47.401Z,6.3
2018-12-26T01:40:49.433Z,6.3
2018-12-26T01:41:51.799Z,6.3
2018-12-26T01:42:54.229Z,6.3
2018-12-26T01:43:56.568Z,6.3
2018-12-26T01:44:58.621Z,6.4
2018-12-26T01:46:00.654Z,6.3
2018-12-26T01:47:02.705Z,6.3
2018-12-26T01:48:04.760Z,6.3
2018-12-26T01:49:06.895Z,6.3
2018-12-26T01:50:08.951Z,6.3
2018-12-26T01:51:11.279Z,6.3
2018-12-26T01:52:13.334Z,6.3
2018-12-26T01:53:15.377Z,6.3
2018-12-26T01:54:17.411Z,6.3
2018-12-26T01:55:19.480Z,6.3
2018-12-26T01:56:29.498Z,6.3
2018-12-26T01:57:31.536Z,6.3
2018-12-26T01:58:33.556Z,6.3
2018-12-26T01:59:35.601Z,6.3
2018-12-26T02:00:37.654Z,6.3
2018-12-26T02:01:39.964Z,6.3
2018-12-26T02:02:42.023Z,6.3
2018-12-26T02:03:44.069Z,6.3
2018-12-26T02:04:46.110Z,6.3
2018-12-26T02:05:48.155Z,6.3
2018-12-26T02:06:50.203Z,6.3
2018-12-26T02:07:52.543Z,6.3
2018-12-26T02:08:54.581Z,6.3
2018-12-26T02:09:56.619Z,6.3
2018-12-26T02:10:58.661Z,6.2
2018-12-26T02:12:00.714Z,6.2
2018-12-26T02:13:02.769Z,6.2
2018-12-26T02:14:04.803Z,6.2
2018-12-26T02:15:06.851Z,6.2
2018-12-26T02:16:08.876Z,6.2
2018-12-26T02:17:11.208Z,6.2
2018-12-26T02:18:13.238Z,6.2
2018-12-26T02:19:15.275Z,6.2
2018-12-26T02:20:17.311Z,6.2
2018-12-26T02:21:19.365Z,6.2
2018-12-26T02:22:21.426Z,6.2
2018-12-26T02:23:23.468Z,6.2
2018-12-26T02:24:26.070Z,6.2
2018-12-26T02:25:28.105Z,6.2
2018-12-26T02:26:37.841Z,6.2
2018-12-26T02:27:39.895Z,6.1
2018-12-26T02:28:41.946Z,6.2
2018-12-26T02:29:43.979Z,6.2
2018-12-26T02:30:46.702Z,6.1
2018-12-26T02:31:48.825Z,6.2
2018-12-26T02:32:51.174Z,6.1
2018-12-26T02:33:54.456Z,6.1
2018-12-26T02:34:56.485Z,6.1
2018-12-26T02:35:58.550Z,6.1
2018-12-26T02:37:00.741Z,6.1
2018-12-26T02:38:03.068Z,6.1
2018-12-26T02:39:05.503Z,6.1
2018-12-26T02:40:08.133Z,6.1
2018-12-26T02:41:10.191Z,6.1
2018-12-26T02:42:12.244Z,6.1
2018-12-26T02:43:14.291Z,6.1
2018-12-26T02:44:16.327Z,6.1
2018-12-26T02:45:18.390Z,6.1
2018-12-26T02:46:20.608Z,6.1
2018-12-26T02:47:22.661Z,6.1
2018-12-26T02:48:24.705Z,6.1
2018-12-26T02:49:27.113Z,6.1
2018-12-26T02:50:29.159Z,6.1
2018-12-26T02:51:31.526Z,6.1
2018-12-26T02:52:33.594Z,6.1
2018-12-26T02:53:35.640Z,6.1
2018-12-26T02:54:37.985Z,6.1
2018-12-26T02:55:40.103Z,6.1
2018-12-26T02:56:50.259Z,6.1
2018-12-26T02:57:52.318Z,6.1
2018-12-26T02:58:54.470Z,6.1
2018-12-26T02:59:56.831Z,6.1
2018-12-26T03:00:58.945Z,6.1
2018-12-26T03:02:00.995Z,6.1
2018-12-26T03:03:03.722Z,6.1
2018-12-26T03:04:06.089Z,6.1
2018-12-26T03:05:08.763Z,6.1
2018-12-26T03:06:10.810Z,6.1
2018-12-26T03:07:12.878Z,6.1
2018-12-26T03:08:14.980Z,6.1
2018-12-26T03:09:17.033Z,6.1
2018-12-26T03:10:19.078Z,6.1
2018-12-26T03:11:21.135Z,6.1
2018-12-26T03:12:23.247Z,6.1
2018-12-26T03:13:25.307Z,6.1
2018-12-26T03:14:27.340Z,6.1
2018-12-26T03:15:29.384Z,6.1
2018-12-26T03:16:31.450Z,6.1
2018-12-26T03:17:33.502Z,6.1
2018-12-26T03:18:35.545Z,6.1
2018-12-26T03:19:37.878Z,6.1
2018-12-26T03:20:39.915Z,6.1
2018-12-26T03:21:42.242Z,6.1
2018-12-26T03:22:44.271Z,6.1
2018-12-26T03:23:46.588Z,6.1
2018-12-26T03:24:48.746Z,6.1
2018-12-26T03:25:50.792Z,6.1
2018-12-26T03:26:57.921Z,6.1
2018-12-26T03:27:59.970Z,6.1
2018-12-26T03:29:02.021Z,6.1
2018-12-26T03:30:04.400Z,6.1
2018-12-26T03:31:06.791Z,6.1
2018-12-26T03:32:08.892Z,6.1
2018-12-26T03:33:11.616Z,6.1
2018-12-26T03:34:13.674Z,6.1
2018-12-26T03:35:16.033Z,6.1
2018-12-26T03:36:18.201Z,6.1
2018-12-26T03:37:20.259Z,6.1
2018-12-26T03:38:22.303Z,6.1
2018-12-26T03:39:24.338Z,6.1
2018-12-26T03:40:26.541Z,6.1
2018-12-26T03:41:28.594Z,6.1
2018-12-26T03:42:31.035Z,6.1
2018-12-26T03:43:33.102Z,6.1
2018-12-26T03:44:35.205Z,6.1
2018-12-26T03:45:37.259Z,6.1
2018-12-26T03:46:39.328Z,6.1
2018-12-26T03:47:41.370Z,6.1
2018-12-26T03:48:43.426Z,6.1
2018-12-26T03:49:45.481Z,6.1
2018-12-26T03:50:47.547Z,6.1
2018-12-26T03:51:49.584Z,6.1
2018-12-26T03:52:52.000Z,6.1
2018-12-26T03:53:54.055Z,6.1
2018-12-26T03:54:56.101Z,6.1
2018-12-26T03:55:58.443Z,6.1
2018-12-26T03:57:07.604Z,6.1
2018-12-26T03:58:09.757Z,6.1
2018-12-26T03:59:12.512Z,6.1
2018-12-26T04:00:14.611Z,6.1
2018-12-26T04:01:16.675Z,6.1
2018-12-26T04:02:18.725Z,6.1
2018-12-26T04:03:20.763Z,6.1
2018-12-26T04:04:22.850Z,6.1
2018-12-26T04:05:25.350Z,6.1
2018-12-26T04:06:27.395Z,6.1
2018-12-26T04:07:29.478Z,6.1
2018-12-26T04:08:31.521Z,6.1
2018-12-26T04:09:33.557Z,6.1
2018-12-26T04:10:35.913Z,6.2
2018-12-26T04:11:38.257Z,6.1
2018-12-26T04:12:40.323Z,6.2
2018-12-26T04:13:42.362Z,6.2
2018-12-26T04:14:44.426Z,6.1
2018-12-26T04:15:46.477Z,6.1
2018-12-26T04:16:48.525Z,6.1
2018-12-26T04:17:50.862Z,6.1
2018-12-26T04:18:52.899Z,6.1
2018-12-26T04:19:54.964Z,6.2
2018-12-26T04:20:57.139Z,6.2
2018-12-26T04:21:59.478Z,6.2
2018-12-26T04:23:01.813Z,6.1
2018-12-26T04:24:03.966Z,6.1
2018-12-26T04:25:06.304Z,6.1
2018-12-26T04:26:08.626Z,6.1
2018-12-26T04:27:17.467Z,6.1
2018-12-26T04:28:19.530Z,6.2
2018-12-26T04:29:21.598Z,6.2
2018-12-26T04:30:23.653Z,6.2
2018-12-26T04:31:26.090Z,6.2
2018-12-26T04:32:28.141Z,6.2
2018-12-26T04:33:30.201Z,6.2
2018-12-26T04:34:32.261Z,6.2
2018-12-26T04:35:34.705Z,6.2
2018-12-26T04:36:36.743Z,6.2
2018-12-26T04:37:38.921Z,6.2
2018-12-26T04:38:40.969Z,6.2
2018-12-26T04:39:43.008Z,6.2
2018-12-26T04:40:45.054Z,6.2
2018-12-26T04:41:47.110Z,6.2
2018-12-26T04:42:49.131Z,6.2
2018-12-26T04:43:52.519Z,6.2
2018-12-26T04:44:54.862Z,6.2
2018-12-26T04:45:56.931Z,6.2
2018-12-26T04:46:59.267Z,6.3
2018-12-26T04:48:01.334Z,6.2
2018-12-26T04:49:03.968Z,6.3
2018-12-26T04:50:06.118Z,6.3
2018-12-26T04:51:08.728Z,6.3
2018-12-26T04:52:10.810Z,6.3
2018-12-26T04:53:12.851Z,6.3
2018-12-26T04:54:14.893Z,6.3
2018-12-26T04:55:16.960Z,6.3
2018-12-26T04:56:19.399Z,6.3
2018-12-26T04:57:26.102Z,6.3
2018-12-26T04:58:28.445Z,6.3
2018-12-26T04:59:30.800Z,6.3
2018-12-26T05:00:32.847Z,6.4
2018-12-26T05:01:35.026Z,6.3
2018-12-26T05:02:37.110Z,6.3
2018-12-26T05:03:39.466Z,6.3
2018-12-26T05:04:41.519Z,6.4
2018-12-26T05:05:43.665Z,6.4
2018-12-26T05:06:45.726Z,6.4
2018-12-26T05:07:48.160Z,6.4
2018-12-26T05:08:50.223Z,6.4
2018-12-26T05:09:52.553Z,6.4
2018-12-26T05:10:54.591Z,6.4
2018-12-26T05:11:56.906Z,6.4
2018-12-26T05:12:58.972Z,6.4
2018-12-26T05:14:01.681Z,6.4
2018-12-26T05:15:03.726Z,6.5
2018-12-26T05:16:06.156Z,6.5
2018-12-26T05:17:08.576Z,6.4
2018-12-26T05:18:10.907Z,6.5
2018-12-26T05:19:12.941Z,6.5
2018-12-26T05:20:15.374Z,6.5
2018-12-26T05:21:17.438Z,6.5
2018-12-26T05:22:19.885Z,6.5
2018-12-26T05:23:21.911Z,6.6
2018-12-26T05:24:23.953Z,6.6
2018-12-26T05:25:26.282Z,6.6
2018-12-26T05:26:28.325Z,6.6
2018-12-26T05:27:35.638Z,6.6
2018-12-26T05:28:38.063Z,6.6
2018-12-26T05:29:40.696Z,6.7
2018-12-26T05:30:42.738Z,6.6
2018-12-26T05:31:44.783Z,6.6
2018-12-26T05:32:46.828Z,6.6
2018-12-26T05:33:48.882Z,6.6
2018-12-26T05:34:50.941Z,6.6
2018-12-26T05:35:53.107Z,6.6
2018-12-26T05:36:55.134Z,6.7
2018-12-26T05:37:57.183Z,6.7
2018-12-26T05:38:59.220Z,6.7
2018-12-26T05:40:01.539Z,6.7
2018-12-26T05:41:03.900Z,6.7
2018-12-26T05:42:06.257Z,6.7
2018-12-26T05:43:08.307Z,6.6
2018-12-26T05:44:10.346Z,6.6
2018-12-26T05:45:12.816Z,6.6
2018-12-26T05:46:14.931Z,6.6
2018-12-26T05:47:16.978Z,6.6
2018-12-26T05:48:19.298Z,6.6
2018-12-26T05:49:21.721Z,6.6
2018-12-26T05:50:23.771Z,6.6
2018-12-26T05:51:25.816Z,6.6
2018-12-26T05:52:27.860Z,6.7
2018-12-26T05:53:29.997Z,6.6
2018-12-26T05:54:32.047Z,6.6
2018-12-26T05:55:34.109Z,6.6
2018-12-26T05:56:38.384Z,6.6
2018-12-26T05:57:44.187Z,6.6
2018-12-26T05:58:46.216Z,6.6
2018-12-26T05:59:48.267Z,6.6
2018-12-26T06:00:50.311Z,6.6
2018-12-26T06:01:52.353Z,6.6
2018-12-26T06:02:54.405Z,6.6
2018-12-26T06:03:56.726Z,6.6
2018-12-26T06:04:58.786Z,6.6
2018-12-26T06:06:01.107Z,6.6
2018-12-26T06:07:03.430Z,6.6
2018-12-26T06:08:05.471Z,6.6
2018-12-26T06:09:07.506Z,6.6
2018-12-26T06:10:09.558Z,6.6
2018-12-26T06:11:11.711Z,6.6
2018-12-26T06:12:13.766Z,6.6
2018-12-26T06:13:15.806Z,6.6
2018-12-26T06:14:17.844Z,6.6
2018-12-26T06:15:20.264Z,6.6
2018-12-26T06:16:22.293Z,6.6
2018-12-26T06:17:24.349Z,6.6
2018-12-26T06:18:26.494Z,6.6
2018-12-26T06:19:28.539Z,6.6
2018-12-26T06:20:30.602Z,6.6
2018-12-26T06:21:32.648Z,6.6
2018-12-26T06:22:34.670Z,6.6
2018-12-26T06:23:36.839Z,6.6
2018-12-26T06:24:38.884Z,6.6
2018-12-26T06:25:40.922Z,6.6
2018-12-26T06:26:42.965Z,6.6
2018-12-26T06:27:52.657Z,6.6
2018-12-26T06:28:55.402Z,6.6
2018-12-26T06:29:57.455Z,6.6
2018-12-26T06:30:59.792Z,6.6
2018-12-26T06:32:02.162Z,6.6
2018-12-26T06:33:04.226Z,6.6
2018-12-26T06:34:06.278Z,6.6
2018-12-26T06:35:08.322Z,6.6
2018-12-26T06:36:10.356Z,6.6
2018-12-26T06:37:12.399Z,6.6
2018-12-26T06:38:14.451Z,6.6
2018-12-26T06:39:16.501Z,6.6
2018-12-26T06:40:18.546Z,6.6
2018-12-26T06:41:21.001Z,6.5
2018-12-26T06:42:23.447Z,6.5
2018-12-26T06:43:25.486Z,6.5
2018-12-26T06:44:27.811Z,6.6
2018-12-26T06:45:29.863Z,6.5
2018-12-26T06:46:32.193Z,6.5
2018-12-26T06:47:34.239Z,6.5
2018-12-26T06:48:36.292Z,6.4
2018-12-26T06:49:38.342Z,6.4
2018-12-26T06:50:40.498Z,6.4
2018-12-26T06:51:42.549Z,6.4
2018-12-26T06:52:44.590Z,6.4
2018-12-26T06:53:46.626Z,6.4
2018-12-26T06:54:49.031Z,6.4
2018-12-26T06:55:51.099Z,6.4
2018-12-26T06:56:53.152Z,6.4
2018-12-26T06:58:01.371Z,6.4
2018-12-26T06:59:03.695Z,6.4
2018-12-26T07:00:05.776Z,6.3
2018-12-26T07:01:07.810Z,6.3
2018-12-26T07:02:09.847Z,6.3
2018-12-26T07:03:11.895Z,6.3
2018-12-26T07:04:13.931Z,6.4
2018-12-26T07:05:15.979Z,6.4
2018-12-26T07:06:18.333Z,6.4
2018-12-26T07:07:20.375Z,6.4
2018-12-26T07:08:22.699Z,6.4
2018-12-26T07:09:24.750Z,6.3
2018-12-26T07:10:26.824Z,6.4
2018-12-26T07:11:28.875Z,6.3
2018-12-26T07:12:30.920Z,6.3
2018-12-26T07:13:33.078Z,6.3
2018-12-26T07:14:35.129Z,6.3
2018-12-26T07:15:37.168Z,6.3
2018-12-26T07:16:39.209Z,6.3
2018-12-26T07:17:41.264Z,6.3
2018-12-26T07:18:43.307Z,6.3
2018-12-26T07:19:45.375Z,6.3
2018-12-26T07:20:47.434Z,6.3
2018-12-26T07:21:49.476Z,6.3
2018-12-26T07:22:51.546Z,6.3
2018-12-26T07:23:53.591Z,6.3
2018-12-26T07:24:55.737Z,6.3
2018-12-26T07:25:57.772Z,6.3
2018-12-26T07:26:59.889Z,6.3
2018-12-26T07:28:10.384Z,6.3
2018-12-26T07:29:12.434Z,6.3
2018-12-26T07:30:14.478Z,6.3
2018-12-26T07:31:16.798Z,6.3
2018-12-26T07:32:19.132Z,6.3
2018-12-26T07:33:21.614Z,6.3
2018-12-26T07:34:24.059Z,6.3
2018-12-26T07:35:26.380Z,6.3
2018-12-26T07:36:28.423Z,6.3
2018-12-26T07:37:30.476Z,6.3
2018-12-26T07:38:32.910Z,6.3
2018-12-26T07:39:34.948Z,6.3
2018-12-26T07:40:36.980Z,6.3
2018-12-26T07:41:39.093Z,6.3
2018-12-26T07:42:41.135Z,6.3
2018-12-26T07:43:43.173Z,6.3
2018-12-26T07:44:45.213Z,6.3
2018-12-26T07:45:47.259Z,6.4
2018-12-26T07:46:49.299Z,6.4
2018-12-26T07:47:51.340Z,6.4
2018-12-26T07:48:53.475Z,6.4
2018-12-26T07:49:55.524Z,6.4
2018-12-26T07:50:58.222Z,6.4
2018-12-26T07:52:00.567Z,6.4
2018-12-26T07:53:02.608Z,6.4
2018-12-26T07:54:04.724Z,6.4
2018-12-26T07:55:06.893Z,6.4
2018-12-26T07:56:08.939Z,6.4
2018-12-26T07:57:10.996Z,6.3
2018-12-26T07:58:18.800Z,6.4
2018-12-26T07:59:20.841Z,6.4
2018-12-26T08:00:22.871Z,6.4
2018-12-26T08:01:24.945Z,6.4
2018-12-26T08:02:27.092Z,6.4
2018-12-26T08:03:29.494Z,6.4
2018-12-26T08:04:31.756Z,6.4
2018-12-26T08:05:33.871Z,6.4
2018-12-26T08:06:35.912Z,6.4
2018-12-26T08:07:37.962Z,6.4
2018-12-26T08:08:40.164Z,6.4
2018-12-26T08:09:42.491Z,6.4
2018-12-26T08:10:44.541Z,6.4
2018-12-26T08:11:46.592Z,6.5
2018-12-26T08:12:48.646Z,6.5
2018-12-26T08:13:50.693Z,6.5
2018-12-26T08:14:53.020Z,6.5
2018-12-26T08:15:55.083Z,6.5
2018-12-26T08:16:57.573Z,6.5
2018-12-26T08:17:59.614Z,6.5
2018-12-26T08:19:01.644Z,6.5
2018-12-26T08:20:03.695Z,6.5
2018-12-26T08:21:05.731Z,6.5
2018-12-26T08:22:08.071Z,6.5
2018-12-26T08:23:10.418Z,6.5
2018-12-26T08:24:12.463Z,6.5
2018-12-26T08:25:14.836Z,6.5
2018-12-26T08:26:16.868Z,6.5
2018-12-26T08:27:18.902Z,6.5
2018-12-26T08:28:29.368Z,6.5
2018-12-26T08:29:32.080Z,6.5
2018-12-26T08:30:34.424Z,6.5
2018-12-26T08:31:36.470Z,6.5
2018-12-26T08:32:38.911Z,6.5
2018-12-26T08:33:40.967Z,6.6
2018-12-26T08:34:43.098Z,6.5
2018-12-26T08:35:45.157Z,6.5
2018-12-26T08:36:47.203Z,6.6
2018-12-26T08:37:49.257Z,6.6
2018-12-26T08:38:51.322Z,6.6
2018-12-26T08:39:53.368Z,6.6
2018-12-26T08:40:55.402Z,6.6
2018-12-26T08:41:57.447Z,6.6
2018-12-26T08:42:59.483Z,6.6
2018-12-26T08:44:01.534Z,6.6
2018-12-26T08:45:03.978Z,6.6
2018-12-26T08:46:06.306Z,6.6
2018-12-26T08:47:08.348Z,6.6
2018-12-26T08:48:10.397Z,6.6
2018-12-26T08:49:12.824Z,6.6
2018-12-26T08:50:14.874Z,6.6
2018-12-26T08:51:16.929Z,6.6
2018-12-26T08:52:18.967Z,6.7
2018-12-26T08:53:21.290Z,6.7
2018-12-26T08:54:23.339Z,6.7
2018-12-26T08:55:25.637Z,6.7
2018-12-26T08:56:27.666Z,6.7
2018-12-26T08:57:29.696Z,6.7
2018-12-26T08:58:36.380Z,6.7
2018-12-26T08:59:38.433Z,6.7
2018-12-26T09:00:40.466Z,6.7
2018-12-26T09:01:42.788Z,6.7
2018-12-26T09:02:44.839Z,6.7
2018-12-26T09:03:46.907Z,6.7
2018-12-26T09:04:49.243Z,6.8
2018-12-26T09:05:51.290Z,6.7
2018-12-26T09:06:53.623Z,6.8
2018-12-26T09:07:55.677Z,6.8
2018-12-26T09:08:57.734Z,6.8
2018-12-26T09:09:59.783Z,6.8
2018-12-26T09:11:01.824Z,6.8
2018-12-26T09:12:03.881Z,6.8
2018-12-26T09:13:05.918Z,6.8
2018-12-26T09:14:07.969Z,6.8
2018-12-26T09:15:10.029Z,6.8
2018-12-26T09:16:12.064Z,6.8
2018-12-26T09:17:14.146Z,6.8
2018-12-26T09:18:16.339Z,6.8
2018-12-26T09:19:18.627Z,6.8
2018-12-26T09:20:20.837Z,6.8
2018-12-26T09:21:22.927Z,6.9
2018-12-26T09:22:24.978Z,6.9
2018-12-26T09:23:27.026Z,6.9
2018-12-26T09:24:29.363Z,6.9
2018-12-26T09:25:31.521Z,6.9
2018-12-26T09:26:33.564Z,6.9
2018-12-26T09:27:35.628Z,6.9
2018-12-26T09:28:45.259Z,6.9
2018-12-26T09:29:47.294Z,7
2018-12-26T09:30:49.334Z,6.9
2018-12-26T09:31:51.377Z,7
2018-12-26T09:32:53.422Z,7
2018-12-26T09:33:55.466Z,7
2018-12-26T09:34:57.801Z,7
2018-12-26T09:35:59.841Z,7
2018-12-26T09:37:02.175Z,7
2018-12-26T09:38:04.643Z,7
2018-12-26T09:39:06.702Z,7
2018-12-26T09:40:08.765Z,7
2018-12-26T09:41:10.798Z,7
2018-12-26T09:42:12.873Z,7
2018-12-26T09:43:14.927Z,7.1
2018-12-26T09:44:17.633Z,7.1
2018-12-26T09:45:19.687Z,7
2018-12-26T09:46:21.753Z,7
2018-12-26T09:47:23.800Z,7
2018-12-26T09:48:25.838Z,7
2018-12-26T09:49:28.181Z,7.1
2018-12-26T09:50:30.230Z,7.1
2018-12-26T09:51:32.298Z,7.1
2018-12-26T09:52:34.344Z,7.1
2018-12-26T09:53:36.678Z,7.1
2018-12-26T09:54:38.718Z,7.1
2018-12-26T09:55:40.756Z,7.1
2018-12-26T09:56:42.802Z,7.1
2018-12-26T09:57:44.838Z,7.1
2018-12-26T09:58:53.974Z,7.1
2018-12-26T09:59:56.028Z,7.1
2018-12-26T10:00:58.073Z,7.1
2018-12-26T10:02:00.114Z,7.1
2018-12-26T10:03:02.561Z,7.1
2018-12-26T10:04:04.636Z,7.1
2018-12-26T10:05:06.712Z,7.1
2018-12-26T10:06:08.805Z,7.1
2018-12-26T10:07:10.841Z,7.1
2018-12-26T10:08:12.890Z,7.2
2018-12-26T10:09:14.955Z,7.2
2018-12-26T10:10:17.004Z,7.2
2018-12-26T10:11:19.320Z,7.1
2018-12-26T10:12:21.376Z,7.2
2018-12-26T10:13:23.809Z,7.1
2018-12-26T10:14:26.434Z,7.1
2018-12-26T10:15:28.574Z,7.2
2018-12-26T10:16:30.623Z,7.2
2018-12-26T10:17:32.682Z,7.2
2018-12-26T10:18:35.036Z,7.2
2018-12-26T10:19:37.099Z,7.2
2018-12-26T10:20:39.132Z,7.2
2018-12-26T10:21:41.167Z,7.2
2018-12-26T10:22:43.605Z,7.2
2018-12-26T10:23:46.032Z,7.2
2018-12-26T10:24:48.074Z,7.2
2018-12-26T10:25:50.111Z,7.3
2018-12-26T10:26:52.145Z,7.3
2018-12-26T10:27:54.192Z,7.3
2018-12-26T10:29:02.131Z,7.2
2018-12-26T10:30:04.164Z,7.3
2018-12-26T10:31:06.216Z,7.3
2018-12-26T10:32:08.320Z,7.2
2018-12-26T10:33:10.384Z,7.2
2018-12-26T10:34:12.431Z,7.2
2018-12-26T10:35:14.879Z,7.3
2018-12-26T10:36:17.026Z,7.2
2018-12-26T10:37:19.068Z,7.2
2018-12-26T10:38:21.131Z,7.3
2018-12-26T10:39:23.173Z,7.3
2018-12-26T10:40:25.211Z,7.3
2018-12-26T10:41:27.250Z,7.3
2018-12-26T10:42:29.324Z,7.3
2018-12-26T10:43:31.363Z,7.3
2018-12-26T10:44:33.512Z,7.3
2018-12-26T10:45:35.560Z,7.3
2018-12-26T10:46:37.632Z,7.3
2018-12-26T10:47:39.681Z,7.3
2018-12-26T10:48:41.732Z,7.3
2018-12-26T10:49:43.873Z,7.3
2018-12-26T10:50:45.949Z,7.3
2018-12-26T10:51:47.981Z,7.3
2018-12-26T10:52:50.048Z,7.4
2018-12-26T10:53:52.089Z,7.3
2018-12-26T10:54:54.144Z,7.3
2018-12-26T10:55:56.187Z,7.3
2018-12-26T10:56:58.225Z,7.3
2018-12-26T10:58:00.272Z,7.3
2018-12-26T10:59:11.418Z,7.3
2018-12-26T11:00:13.832Z,7.3
2018-12-26T11:01:15.894Z,7.4
2018-12-26T11:02:17.944Z,7.4
2018-12-26T11:03:20.275Z,7.4
2018-12-26T11:04:22.445Z,7.4
2018-12-26T11:05:30.787Z,7.4
2018-12-26T11:06:32.820Z,7.4
2018-12-26T11:07:34.864Z,7.4
2018-12-26T11:08:36.961Z,7.3
2018-12-26T11:09:39.012Z,7.4
2018-12-26T11:10:41.065Z,7.3
2018-12-26T11:11:43.206Z,7.4
2018-12-26T11:12:45.245Z,7.3
2018-12-26T11:13:47.386Z,7.3
2018-12-26T11:14:49.427Z,7.3
2018-12-26T11:15:51.490Z,7.4
2018-12-26T11:16:53.572Z,7.4
2018-12-26T11:17:55.638Z,7.4
2018-12-26T11:18:57.752Z,7.4
2018-12-26T11:19:59.811Z,7.4
2018-12-26T11:21:02.117Z,7.4
2018-12-26T11:22:04.330Z,7.4
2018-12-26T11:23:06.662Z,7.4
2018-12-26T11:24:08.726Z,7.4
2018-12-26T11:25:10.773Z,7.4
2018-12-26T11:26:13.125Z,7.4
2018-12-26T11:27:15.179Z,7.4
2018-12-26T11:28:17.302Z,7.3
2018-12-26T11:29:20.056Z,7.3
2018-12-26T11:30:22.123Z,7.3
2018-12-26T11:31:24.181Z,7.4
2018-12-26T11:32:26.218Z,7.3
2018-12-26T11:33:28.646Z,7.3
2018-12-26T11:34:30.685Z,7.3
2018-12-26T11:35:32.749Z,7.3
2018-12-26T11:36:34.798Z,7.3
2018-12-26T11:37:36.846Z,7.4
2018-12-26T11:38:38.884Z,7.4
2018-12-26T11:39:40.930Z,7.4
2018-12-26T11:40:42.970Z,7.4
2018-12-26T11:41:45.015Z,7.4
2018-12-26T11:42:47.076Z,7.4
2018-12-26T11:43:49.125Z,7.4
2018-12-26T11:44:51.457Z,7.4
2018-12-26T11:45:53.514Z,7.4
2018-12-26T11:46:57.618Z,7.4
2018-12-26T11:47:59.672Z,7.4
2018-12-26T11:49:02.017Z,7.4
2018-12-26T11:50:04.057Z,7.4
2018-12-26T11:51:06.102Z,7.4
2018-12-26T11:52:08.432Z,7.4
2018-12-26T11:53:10.473Z,7.4
2018-12-26T11:54:12.524Z,7.4
2018-12-26T11:55:14.550Z,7.4
2018-12-26T11:56:16.876Z,7.4
2018-12-26T11:57:18.936Z,7.4
2018-12-26T11:58:20.994Z,7.4
2018-12-26T11:59:28.418Z,7.4
2018-12-26T12:00:30.846Z,7.4
2018-12-26T12:01:32.893Z,7.4
2018-12-26T12:02:34.932Z,7.4
2018-12-26T12:03:36.984Z,7.4
2018-12-26T12:04:39.043Z,7.4
2018-12-26T12:05:41.286Z,7.4
2018-12-26T12:06:43.333Z,7.4
2018-12-26T12:07:45.368Z,7.4
2018-12-26T12:08:50.702Z,7.4
2018-12-26T12:09:58.385Z,7.5
2018-12-26T12:11:06.969Z,7.4
2018-12-26T12:12:14.022Z,7.4
2018-12-26T12:13:23.304Z,7.5
2018-12-26T12:14:30.288Z,7.4
2018-12-26T12:15:41.915Z,7.5
2018-12-26T12:16:44.190Z,7.5
2018-12-26T12:17:46.251Z,7.5
2018-12-26T12:18:48.297Z,7.5
2018-12-26T12:19:50.342Z,7.5
2018-12-26T12:20:52.797Z,7.5
2018-12-26T12:21:54.834Z,7.5
2018-12-26T12:22:56.881Z,7.5
2018-12-26T12:23:58.936Z,7.5
2018-12-26T12:25:01.234Z,7.5
2018-12-26T12:26:03.367Z,7.5
2018-12-26T12:27:05.414Z,7.5
2018-12-26T12:28:07.523Z,7.5
2018-12-26T12:29:10.106Z,7.5
2018-12-26T12:30:12.196Z,7.5
2018-12-26T12:31:14.711Z,7.5
2018-12-26T12:32:16.849Z,7.5
2018-12-26T12:33:19.043Z,7.5
2018-12-26T12:34:21.263Z,7.5
2018-12-26T12:35:23.883Z,7.5
2018-12-26T12:36:25.946Z,7.5
2018-12-26T12:37:28.292Z,7.5
2018-12-26T12:38:30.340Z,7.6
2018-12-26T12:39:32.377Z,7.6
2018-12-26T12:40:34.412Z,7.6
2018-12-26T12:41:36.556Z,7.6
2018-12-26T12:42:38.614Z,7.6
2018-12-26T12:43:40.663Z,7.6
2018-12-26T12:44:42.698Z,7.5
2018-12-26T12:45:44.733Z,7.6
2018-12-26T12:46:46.772Z,7.6
2018-12-26T12:47:49.098Z,7.5
2018-12-26T12:48:51.154Z,7.6
2018-12-26T12:49:53.185Z,7.6
2018-12-26T12:50:55.243Z,7.6
2018-12-26T12:51:57.286Z,7.6
2018-12-26T12:52:59.331Z,7.6
2018-12-26T12:54:01.430Z,7.6
2018-12-26T12:55:03.621Z,7.6
2018-12-26T12:56:13.622Z,7.6
2018-12-26T12:57:15.688Z,7.6
2018-12-26T12:58:17.969Z,7.6
2018-12-26T12:59:20.086Z,7.6
2018-12-26T13:00:22.189Z,7.6
2018-12-26T13:01:24.990Z,7.6
2018-12-26T13:02:28.091Z,7.6
2018-12-26T13:03:30.715Z,7.7
2018-12-26T13:04:32.756Z,7.6
2018-12-26T13:05:34.806Z,7.6
2018-12-26T13:06:36.857Z,7.7
2018-12-26T13:07:38.890Z,7.6
2018-12-26T13:08:41.317Z,7.6
2018-12-26T13:09:43.360Z,7.7
2018-12-26T13:10:45.441Z,7.6
2018-12-26T13:11:47.503Z,7.7
2018-12-26T13:12:49.824Z,7.7
2018-12-26T13:13:51.867Z,7.7
2018-12-26T13:14:54.682Z,7.7
2018-12-26T13:15:57.238Z,7.7
2018-12-26T13:16:59.295Z,7.7
2018-12-26T13:18:01.351Z,7.7
2018-12-26T13:19:03.392Z,7.7
2018-12-26T13:20:05.441Z,7.7
2018-12-26T13:21:07.505Z,7.7
2018-12-26T13:22:09.542Z,7.7
2018-12-26T13:23:11.576Z,7.7
2018-12-26T13:24:13.626Z,7.7
2018-12-26T13:25:15.964Z,7.7
2018-12-26T13:26:18.287Z,7.7
2018-12-26T13:27:20.342Z,7.7
2018-12-26T13:28:22.373Z,7.7
2018-12-26T13:29:24.416Z,7.7
2018-12-26T13:30:26.654Z,7.7
2018-12-26T13:31:29.392Z,7.7
2018-12-26T13:32:31.664Z,7.7
2018-12-26T13:33:33.828Z,7.7
2018-12-26T13:34:35.885Z,7.7
2018-12-26T13:35:37.983Z,7.8
2018-12-26T13:36:40.453Z,7.7
2018-12-26T13:37:42.535Z,7.7
2018-12-26T13:38:44.854Z,7.7
2018-12-26T13:39:46.998Z,7.7
2018-12-26T13:40:49.038Z,7.7
2018-12-26T13:41:51.100Z,7.7
2018-12-26T13:42:53.258Z,7.7
2018-12-26T13:43:55.315Z,7.7
2018-12-26T13:44:57.363Z,7.7
2018-12-26T13:45:59.426Z,7.7
2018-12-26T13:47:01.640Z,7.7
2018-12-26T13:48:03.677Z,7.7
2018-12-26T13:49:05.819Z,7.7
2018-12-26T13:50:07.874Z,7.7
2018-12-26T13:51:09.945Z,7.7
2018-12-26T13:52:12.009Z,7.7
2018-12-26T13:53:14.328Z,7.7
2018-12-26T13:54:16.388Z,7.7
2018-12-26T13:55:18.578Z,7.7
2018-12-26T13:56:20.626Z,7.7
2018-12-26T13:57:22.737Z,7.7
2018-12-26T13:58:24.797Z,7.7
2018-12-26T13:59:26.898Z,7.7
2018-12-26T14:00:28.950Z,7.7
2018-12-26T14:01:31.073Z,7.7
2018-12-26T14:02:33.177Z,7.7
2018-12-26T14:03:35.226Z,7.7
2018-12-26T14:04:37.447Z,7.7
2018-12-26T14:05:39.498Z,7.7
2018-12-26T14:06:41.928Z,7.7
2018-12-26T14:07:44.090Z,7.7
2018-12-26T14:08:46.137Z,7.7
2018-12-26T14:09:48.298Z,7.7
2018-12-26T14:10:50.331Z,7.7
2018-12-26T14:11:52.852Z,7.6
2018-12-26T14:12:55.018Z,7.6
2018-12-26T14:13:57.079Z,7.7
2018-12-26T14:14:59.157Z,7.7
2018-12-26T14:16:01.218Z,7.7
2018-12-26T14:17:03.616Z,7.7
2018-12-26T14:18:05.644Z,7.6
2018-12-26T14:19:07.694Z,7.6
2018-12-26T14:20:09.756Z,7.6